createdAt,value
2022-12-13T15:04:08.883Z,0
2022-12-13T15:05:28.243Z,0
2022-12-13T15:06:25.539Z,0
2022-12-13T15:07:34.108Z,16.799999
2022-12-13T15:08:42.455Z,16.799999
2022-12-13T15:09:50.793Z,16.799999
2022-12-13T15:10:59.372Z,17.1
2022-12-13T15:12:15.167Z,17.1
2022-12-13T15:13:16.060Z,17.1
2022-12-13T15:14:24.615Z,14.7
2022-12-13T15:15:32.988Z,14.7
2022-12-13T15:16:41.374Z,14.7
2022-12-13T15:17:49.887Z,17.799999
2022-12-13T15:18:58.235Z,17.799999
2022-12-13T15:20:06.702Z,17.799999
2022-12-13T15:21:15.171Z,19.700001
2022-12-13T15:22:29.359Z,19.700001
2022-12-13T15:23:31.874Z,19.700001
2022-12-13T15:24:40.418Z,15.5
2022-12-13T15:25:48.782Z,15.5
2022-12-13T15:26:57.123Z,15.5
2022-12-13T15:28:05.709Z,17
2022-12-13T15:29:14.049Z,17
2022-12-13T15:30:22.397Z,17
2022-12-13T15:31:31.016Z,15.9
2022-12-13T15:32:39.319Z,15.9
2022-12-13T15:33:47.854Z,15.9
2022-12-13T15:34:56.230Z,16.4
2022-12-13T15:36:04.630Z,16.4
2022-12-13T15:37:27.908Z,16.4
2022-12-13T15:38:28.586Z,15.9
2022-12-13T15:39:29.965Z,15.9
2022-12-13T15:40:38.282Z,15.9
2022-12-13T15:41:46.867Z,16.9
2022-12-13T15:42:55.204Z,16.9
2022-12-13T15:44:03.588Z,16.9
2022-12-13T15:45:12.134Z,15.9
2022-12-13T15:46:20.535Z,15.9
2022-12-13T15:47:29.372Z,15.9
2022-12-13T15:48:37.392Z,17.4
2022-12-13T15:49:45.740Z,17.4
2022-12-13T15:50:54.082Z,17.4
2022-12-13T15:52:02.675Z,20.5
2022-12-13T15:53:11.030Z,20.5
2022-12-13T15:54:19.343Z,20.5
2022-12-13T15:55:28.559Z,18.4
2022-12-13T15:56:36.251Z,18.4
2022-12-13T15:57:44.606Z,18.4
2022-12-13T15:58:53.241Z,25.200001
2022-12-13T16:00:01.581Z,25.200001
2022-12-13T16:01:09.978Z,25.200001
2022-12-13T16:02:18.503Z,52.900002
2022-12-13T16:03:27.289Z,52.900002
2022-12-13T16:04:35.191Z,52.900002
2022-12-13T16:05:43.747Z,89.800003
2022-12-13T16:06:52.105Z,89.800003
2022-12-13T16:08:00.466Z,89.800003
2022-12-13T16:09:09.048Z,100.4
2022-12-13T16:10:17.412Z,100.4
2022-12-13T16:11:25.767Z,100.4
2022-12-13T16:12:34.317Z,138.5
2022-12-13T16:13:47.418Z,138.5
2022-12-13T16:14:51.006Z,138.5
2022-12-13T16:16:08.467Z,118
2022-12-13T16:17:08.056Z,118
2022-12-13T16:18:16.376Z,118
2022-12-13T16:19:24.924Z,91.900002
2022-12-13T16:20:33.939Z,91.900002
2022-12-13T16:21:42.298Z,91.900002
2022-12-13T16:22:50.859Z,93.900002
2022-12-13T16:23:59.325Z,93.900002
2022-12-13T16:25:07.661Z,93.900002
2022-12-13T16:26:16.241Z,89.099998
2022-12-13T16:27:24.594Z,89.099998
2022-12-13T16:28:32.955Z,89.099998
2022-12-13T16:29:41.546Z,69.400002
2022-12-13T16:30:49.893Z,69.400002
2022-12-13T16:32:01.356Z,69.400002
2022-12-13T16:33:26.483Z,60.599998
2022-12-13T16:34:15.184Z,60.599998
2022-12-13T16:35:23.521Z,60.599998
2022-12-13T16:36:32.094Z,46.400002
2022-12-13T16:37:40.465Z,46.400002
2022-12-13T16:38:49.333Z,46.400002
2022-12-13T16:39:57.985Z,32
2022-12-13T16:41:08.541Z,32
2022-12-13T16:42:14.735Z,32
2022-12-13T16:45:18.089Z,33.200001
2022-12-13T16:47:11.294Z,33.200001
2022-12-13T16:47:22.078Z,32.700001
2022-12-13T16:48:22.014Z,32.700001
2022-12-13T16:49:30.223Z,32.700001
2022-12-13T16:50:38.807Z,39.599998
2022-12-13T16:51:48.705Z,39.599998
2022-12-13T16:52:55.504Z,39.599998
2022-12-13T16:54:04.050Z,33.900002
2022-12-13T16:55:12.419Z,33.900002
2022-12-13T16:56:20.752Z,33.900002
2022-12-13T16:57:29.362Z,27.200001
2022-12-13T16:58:37.778Z,27.200001
2022-12-13T16:59:46.116Z,27.200001
2022-12-13T17:00:58.922Z,18.299999
2022-12-13T17:02:03.119Z,18.299999
2022-12-13T17:03:11.409Z,18.299999
2022-12-13T17:04:21.179Z,15.2
2022-12-13T17:05:28.319Z,15.2
2022-12-13T17:06:36.678Z,15.2
2022-12-13T17:07:45.220Z,13.3
2022-12-13T17:08:53.576Z,13.3
2022-12-13T17:10:01.934Z,13.3
2022-12-13T17:11:14.771Z,12.4
2022-12-13T17:12:18.839Z,12.4
2022-12-13T17:13:27.540Z,12.4
2022-12-13T17:14:35.801Z,11.8
2022-12-13T17:15:44.172Z,11.8
2022-12-13T17:16:52.586Z,11.8
2022-12-13T17:18:01.163Z,12
2022-12-13T17:19:09.498Z,12
2022-12-13T17:20:17.926Z,12
2022-12-13T17:21:26.446Z,12.5
2022-12-13T17:22:34.821Z,12.5
2022-12-13T17:23:43.194Z,12.5
2022-12-13T17:24:51.769Z,11.7
2022-12-13T17:26:00.148Z,11.7
2022-12-13T17:27:08.530Z,11.7
2022-12-13T17:28:17.092Z,12.3
2022-12-13T17:29:25.486Z,12.3
2022-12-13T17:30:33.873Z,12.3
2022-12-13T17:31:42.430Z,11.6
2022-12-13T17:32:50.776Z,11.6
2022-12-13T17:33:59.147Z,11.6
2022-12-13T17:35:08.112Z,12.2
2022-12-13T17:36:16.111Z,12.2
2022-12-13T17:37:24.464Z,12.2
2022-12-13T17:38:33.055Z,12.7
2022-12-13T17:39:41.429Z,12.7
2022-12-13T17:40:54.575Z,12.7
2022-12-13T17:41:58.421Z,12
2022-12-13T17:43:06.837Z,12
2022-12-13T17:44:15.175Z,12
2022-12-13T17:45:23.740Z,11.1
2022-12-13T17:46:32.147Z,11.1
2022-12-13T17:47:40.518Z,11.1
2022-12-13T17:48:49.066Z,11.5
2022-12-13T17:49:57.509Z,11.5
2022-12-13T17:51:05.891Z,11.5
2022-12-13T17:52:14.481Z,11.1
2022-12-13T17:53:23.133Z,11.1
2022-12-13T17:54:31.206Z,11.1
2022-12-13T17:55:39.787Z,10.2
2022-12-13T17:56:48.196Z,10.2
2022-12-13T17:57:59.790Z,10.2
2022-12-13T17:59:05.199Z,9.9
2022-12-13T18:00:13.566Z,9.9
2022-12-13T18:01:22.006Z,9.9
2022-12-13T18:02:30.588Z,11.5
2022-12-13T18:03:38.956Z,11.5
2022-12-13T18:04:47.270Z,11.5
2022-12-13T18:05:55.861Z,9.3
2022-12-13T18:07:04.288Z,9.3
2022-12-13T18:08:12.659Z,9.3
2022-12-13T18:09:21.220Z,11.3
2022-12-13T18:10:30.345Z,11.3
2022-12-13T18:11:38.028Z,11.3
2022-12-13T18:12:46.591Z,10.9
2022-12-13T18:13:55.469Z,10.9
2022-12-13T18:15:03.408Z,10.9
2022-12-13T18:16:12.065Z,12.2
2022-12-13T18:17:20.358Z,12.2
2022-12-13T18:18:28.771Z,12.2
2022-12-13T18:19:37.353Z,10.3
2022-12-13T18:20:45.759Z,10.3
2022-12-13T18:21:54.124Z,10.3
2022-12-13T18:23:02.676Z,13.9
2022-12-13T18:24:11.038Z,13.9
2022-12-13T18:25:19.412Z,13.9
2022-12-13T18:26:28.028Z,11.4
2022-12-13T18:27:36.438Z,11.4
2022-12-13T18:28:44.797Z,11.4
2022-12-13T18:29:55.265Z,12.8
2022-12-13T18:31:01.834Z,12.8
2022-12-13T18:32:10.182Z,12.8
2022-12-13T18:33:18.774Z,12.4
2022-12-13T18:34:27.207Z,12.4
2022-12-13T18:35:35.706Z,12.4
2022-12-13T18:36:44.350Z,12
2022-12-13T18:37:52.967Z,12
2022-12-13T18:39:01.309Z,12
2022-12-13T18:40:09.904Z,12.4
2022-12-13T18:41:18.294Z,12.4
2022-12-13T18:42:26.709Z,12.4
2022-12-13T18:43:35.271Z,11.8
2022-12-13T18:44:43.626Z,11.8
2022-12-13T18:45:52.035Z,11.8
2022-12-13T18:47:00.661Z,12.6
2022-12-13T18:48:08.950Z,12.6
2022-12-13T18:49:17.321Z,12.6
2022-12-13T18:50:25.914Z,11.5
2022-12-13T18:51:34.301Z,11.5
2022-12-13T18:52:42.730Z,11.5
2022-12-13T18:53:51.309Z,13.2
2022-12-13T18:54:59.670Z,13.2
2022-12-13T18:56:10.539Z,13.2
2022-12-13T18:57:16.621Z,14.4
2022-12-13T18:58:24.991Z,14.4
2022-12-13T18:59:33.381Z,14.4
2022-12-13T19:00:41.932Z,13.5
2022-12-13T19:01:50.317Z,13.5
2022-12-13T19:02:58.761Z,13.5
2022-12-13T19:04:07.299Z,13
2022-12-13T19:05:15.746Z,13
2022-12-13T19:06:24.101Z,13
2022-12-13T19:07:32.672Z,12.2
2022-12-13T19:08:41.012Z,12.2
2022-12-13T19:09:54.363Z,12.2
2022-12-13T19:10:57.981Z,12.3
2022-12-13T19:12:06.386Z,12.3
2022-12-13T19:13:14.726Z,12.3
2022-12-13T19:14:26.971Z,14.8
2022-12-13T19:15:31.665Z,14.8
2022-12-13T19:16:40.042Z,14.8
2022-12-13T19:17:48.623Z,13.6
2022-12-13T19:18:57.102Z,13.6
2022-12-13T19:20:05.576Z,13.6
2022-12-13T19:21:14.061Z,12.8
2022-12-13T19:22:22.446Z,12.8
2022-12-13T19:23:30.810Z,12.8
2022-12-13T19:24:39.397Z,12.1
2022-12-13T19:25:48.516Z,12.1
2022-12-13T19:26:56.127Z,12.1
2022-12-13T19:28:04.714Z,13.5
2022-12-13T19:29:13.074Z,13.5
2022-12-13T19:30:21.438Z,13.5
2022-12-13T19:31:31.927Z,13.5
2022-12-13T19:32:38.464Z,13.5
2022-12-13T19:33:46.827Z,13.5
2022-12-13T19:34:55.422Z,15.5
2022-12-13T19:36:04.098Z,15.5
2022-12-13T19:37:12.452Z,15.5
2022-12-13T19:38:21.090Z,15.3
2022-12-13T19:39:29.459Z,15.3
2022-12-13T19:40:37.812Z,15.3
2022-12-13T19:41:46.504Z,13.2
2022-12-13T19:42:54.854Z,13.2
2022-12-13T19:44:03.273Z,13.2
2022-12-13T19:45:11.851Z,15.5
2022-12-13T19:46:20.296Z,15.5
2022-12-13T19:47:28.550Z,15.5
2022-12-13T19:48:37.118Z,13.5
2022-12-13T19:49:45.491Z,13.5
2022-12-13T19:50:53.891Z,13.5
2022-12-13T19:52:02.442Z,13.2
2022-12-13T19:53:10.801Z,13.2
2022-12-13T19:54:19.130Z,13.2
2022-12-13T19:55:27.760Z,13
2022-12-13T19:56:36.132Z,13
2022-12-13T19:57:44.516Z,13
2022-12-13T19:58:53.076Z,14.5
2022-12-13T20:00:01.425Z,14.5
2022-12-13T20:01:09.879Z,14.5
2022-12-13T20:02:18.401Z,15.3
2022-12-13T20:03:27.026Z,15.3
2022-12-13T20:04:35.167Z,15.3
2022-12-13T20:05:45.712Z,13.5
2022-12-13T20:06:52.136Z,13.5
2022-12-13T20:08:00.498Z,13.5
2022-12-13T20:09:09.114Z,12.8
2022-12-13T20:10:17.463Z,12.8
2022-12-13T20:11:25.865Z,12.8
2022-12-13T20:12:39.018Z,13.7
2022-12-13T20:13:42.810Z,13.7
2022-12-13T20:14:51.206Z,13.7
2022-12-13T20:15:59.846Z,13.3
2022-12-13T20:17:08.144Z,13.3
2022-12-13T20:18:16.592Z,13.3
2022-12-13T20:19:25.152Z,13.4
2022-12-13T20:21:02.143Z,13.4
2022-12-13T20:21:42.002Z,13.4
2022-12-13T20:22:50.559Z,13.2
2022-12-13T20:23:58.941Z,13.2
2022-12-13T20:25:07.292Z,13.2
2022-12-13T20:26:15.937Z,15.1
2022-12-13T20:27:24.282Z,15.1
2022-12-13T20:28:32.602Z,15.1
2022-12-13T20:29:41.187Z,14.2
2022-12-13T20:30:49.587Z,14.2
2022-12-13T20:31:57.987Z,14.2
2022-12-13T20:33:06.655Z,16
2022-12-13T20:34:14.975Z,16
2022-12-13T20:35:23.332Z,16
2022-12-13T20:36:31.908Z,14.7
2022-12-13T20:37:40.295Z,14.7
2022-12-13T20:38:48.704Z,14.7
2022-12-13T20:39:57.285Z,14.4
2022-12-13T20:41:05.692Z,14.4
2022-12-13T20:42:14.039Z,14.4
2022-12-13T20:43:22.681Z,16.200001
2022-12-13T20:44:31.085Z,16.200001
2022-12-13T20:45:39.439Z,16.200001
2022-12-13T20:46:48.407Z,15.7
2022-12-13T20:47:56.742Z,15.7
2022-12-13T20:49:05.120Z,15.7
2022-12-13T20:50:13.670Z,14.6
2022-12-13T20:51:22.090Z,14.6
2022-12-13T20:52:30.417Z,14.6
2022-12-13T20:53:39.003Z,13.9
2022-12-13T20:54:47.379Z,13.9
2022-12-13T20:55:55.731Z,13.9
2022-12-13T20:57:04.320Z,14
2022-12-13T20:58:12.669Z,14
2022-12-13T20:59:21.029Z,14
2022-12-13T21:00:29.643Z,13.7
2022-12-13T21:01:38.082Z,13.7
2022-12-13T21:02:46.336Z,13.7
2022-12-13T21:03:54.922Z,11.5
2022-12-13T21:05:03.291Z,11.5
2022-12-13T21:06:11.683Z,11.5
2022-12-13T21:07:20.218Z,11.1
2022-12-13T21:08:28.590Z,11.1
2022-12-13T21:09:36.955Z,11.1
2022-12-13T21:10:45.539Z,10.4
2022-12-13T21:11:53.917Z,10.4
2022-12-13T21:13:02.299Z,10.4
2022-12-13T21:14:15.097Z,11.1
2022-12-13T21:15:19.195Z,11.1
2022-12-13T21:16:27.595Z,11.1
2022-12-13T21:17:36.287Z,11.8
2022-12-13T21:18:44.649Z,11.8
2022-12-13T21:19:53.101Z,11.8
2022-12-13T21:21:01.649Z,10.1
2022-12-13T21:22:09.993Z,10.1
2022-12-13T21:23:18.337Z,10.1
2022-12-13T21:24:26.885Z,10.1
2022-12-13T21:25:35.242Z,10.1
2022-12-13T21:26:43.605Z,10.1
2022-12-13T21:27:52.129Z,11.6
2022-12-13T21:29:00.533Z,11.6
2022-12-13T21:30:08.844Z,11.6
2022-12-13T21:31:17.473Z,9.5
2022-12-13T21:32:25.745Z,9.5
2022-12-13T21:33:34.079Z,9.5
2022-12-13T21:34:42.641Z,10.6
2022-12-13T21:35:50.982Z,10.6
2022-12-13T21:36:59.353Z,10.6
2022-12-13T21:38:07.902Z,11.9
2022-12-13T21:39:16.230Z,11.9
2022-12-13T21:40:24.580Z,11.9
2022-12-13T21:41:33.134Z,11.4
2022-12-13T21:42:41.481Z,11.4
2022-12-13T21:43:49.792Z,11.4
2022-12-13T21:45:02.083Z,11.5
2022-12-13T21:46:06.735Z,11.5
2022-12-13T21:47:15.047Z,11.5
2022-12-13T21:48:23.582Z,12.3
2022-12-13T21:49:31.907Z,12.3
2022-12-13T21:50:40.249Z,12.3
2022-12-13T21:51:48.837Z,11.6
2022-12-13T21:52:57.162Z,11.6
2022-12-13T21:54:05.481Z,11.6
2022-12-13T21:55:38.186Z,11.3
2022-12-13T21:56:22.396Z,11.3
2022-12-13T21:57:30.747Z,11.3
2022-12-13T21:58:39.316Z,12.1
2022-12-13T21:59:47.622Z,12.1
2022-12-13T22:00:56.046Z,12.1
2022-12-13T22:02:04.632Z,11.1
2022-12-13T22:03:12.871Z,11.1
2022-12-13T22:04:21.193Z,11.1
2022-12-13T22:05:29.756Z,11.6
2022-12-13T22:06:38.113Z,11.6
2022-12-13T22:07:46.447Z,11.6
2022-12-13T22:08:54.996Z,10.9
2022-12-13T22:10:03.333Z,10.9
2022-12-13T22:11:14.029Z,10.9
2022-12-13T22:12:20.240Z,12.8
2022-12-13T22:13:28.576Z,12.8
2022-12-13T22:14:36.955Z,12.8
2022-12-13T22:15:45.472Z,11.6
2022-12-13T22:16:53.870Z,11.6
2022-12-13T22:18:02.189Z,11.6
2022-12-13T22:19:10.712Z,13
2022-12-13T22:20:19.090Z,13
2022-12-13T22:21:27.408Z,13
2022-12-13T22:22:35.944Z,11.8
2022-12-13T22:23:44.285Z,11.8
2022-12-13T22:24:53.590Z,11.8
2022-12-13T22:26:01.164Z,10.7
2022-12-13T22:27:09.499Z,10.7
2022-12-13T22:28:17.827Z,10.7
2022-12-13T22:29:26.373Z,11.2
2022-12-13T22:30:34.755Z,11.2
2022-12-13T22:31:43.122Z,11.2
2022-12-13T22:32:51.623Z,11.1
2022-12-13T22:33:59.947Z,11.1
2022-12-13T22:35:08.301Z,11.1
2022-12-13T22:36:16.865Z,12.8
2022-12-13T22:37:25.207Z,12.8
2022-12-13T22:38:33.543Z,12.8
2022-12-13T22:39:42.093Z,11.7
2022-12-13T22:40:50.408Z,11.7
2022-12-13T22:41:58.755Z,11.7
2022-12-13T22:43:07.305Z,13.3
2022-12-13T22:44:15.685Z,13.3
2022-12-13T22:45:24.014Z,13.3
2022-12-13T22:46:32.644Z,12.6
2022-12-13T22:47:40.955Z,12.6
2022-12-13T22:48:49.288Z,12.6
2022-12-13T22:49:57.832Z,10.5
2022-12-13T22:51:06.174Z,10.5
2022-12-13T22:52:14.495Z,10.5
2022-12-13T22:53:23.045Z,12.5
2022-12-13T22:54:31.385Z,12.5
2022-12-13T22:55:39.717Z,12.5
2022-12-13T22:56:48.280Z,13.1
2022-12-13T22:57:56.665Z,13.1
2022-12-13T22:59:04.986Z,13.1
2022-12-13T23:00:13.592Z,11.7
2022-12-13T23:01:21.972Z,11.7
2022-12-13T23:02:30.308Z,11.7
2022-12-13T23:03:38.778Z,12
2022-12-13T23:04:47.101Z,12
2022-12-13T23:05:55.462Z,12
2022-12-13T23:07:04.009Z,14.2
2022-12-13T23:08:12.330Z,14.2
2022-12-13T23:09:20.665Z,14.2
2022-12-13T23:10:29.203Z,13.3
2022-12-13T23:11:37.540Z,13.3
2022-12-13T23:12:45.882Z,13.3
2022-12-13T23:13:54.444Z,12.9
2022-12-13T23:15:02.768Z,12.9
2022-12-13T23:16:11.125Z,12.9
2022-12-13T23:17:19.705Z,12.4
2022-12-13T23:18:28.362Z,12.4
2022-12-13T23:19:49.234Z,12.4
2022-12-13T23:20:44.925Z,10.3
2022-12-13T23:21:53.276Z,10.3
2022-12-13T23:23:01.619Z,10.3
2022-12-13T23:24:10.166Z,11.5
2022-12-13T23:25:18.509Z,11.5
2022-12-13T23:26:26.858Z,11.5
2022-12-13T23:27:35.412Z,14
2022-12-13T23:28:43.756Z,14
2022-12-13T23:29:52.115Z,14
2022-12-13T23:31:00.732Z,12.9
2022-12-13T23:32:09.016Z,12.9
2022-12-13T23:33:17.339Z,12.9
2022-12-13T23:34:25.922Z,12.4
2022-12-13T23:35:34.245Z,12.4
2022-12-13T23:36:42.600Z,12.4
2022-12-13T23:37:51.171Z,13.2
2022-12-13T23:38:59.505Z,13.2
2022-12-13T23:40:07.836Z,13.2
2022-12-13T23:41:19.190Z,11.4
2022-12-13T23:42:24.741Z,11.4
2022-12-13T23:43:33.074Z,11.4
2022-12-13T23:44:41.618Z,11.8
2022-12-13T23:45:49.985Z,11.8
2022-12-13T23:46:58.311Z,11.8
2022-12-13T23:48:06.854Z,12.2
2022-12-13T23:49:15.191Z,12.2
2022-12-13T23:50:23.547Z,12.2
2022-12-13T23:51:32.078Z,11.7
2022-12-13T23:52:40.408Z,11.7
2022-12-13T23:53:48.739Z,11.7
2022-12-13T23:54:57.281Z,12.6
2022-12-13T23:56:05.626Z,12.6
2022-12-13T23:57:13.954Z,12.6
2022-12-13T23:58:22.496Z,11.6
2022-12-13T23:59:30.846Z,11.6
